Time;durP1;ratioP1;P1;durP2;ratioP2;P2;SDS_P1;SDS_P2;PMS_P1;PMS_P2;Temp;Humidity;BMP_temperature;BMP_pressure;BME280_temperature;BME280_humidity;BME280_pressure;Samples;Min_cycle;Max_cycle;Signal;HPM_P1;HPM_P2
2024/01/11 00:01:35;;;;;;;16.70;15.70;;;20.60;37.10;;;;;;5042467;28;20466;-66
2024/01/11 00:04:02;;;;;;;20.30;19.20;;;20.60;37.10;;;;;;5049717;28;20500;-66
2024/01/11 00:06:28;;;;;;;20.53;19.33;;;20.60;37.10;;;;;;5051380;28;20471;-66
2024/01/11 00:08:55;;;;;;;18.30;17.13;;;20.60;37.10;;;;;;5051028;28;20952;-66
2024/01/11 00:11:22;;;;;;;17.97;16.97;;;20.60;37.20;;;;;;5045963;28;20958;-66
2024/01/11 00:13:49;;;;;;;17.50;16.50;;;20.50;37.10;;;;;;5046473;28;20586;-66
2024/01/11 00:16:16;;;;;;;19.57;18.33;;;20.50;37.10;;;;;;5051433;28;20509;-66
2024/01/11 00:18:44;;;;;;;19.87;18.40;;;20.50;37.10;;;;;;5050986;28;20471;-66
2024/01/11 00:21:11;;;;;;;19.50;18.10;;;20.50;37.10;;;;;;5050154;28;20448;-66
2024/01/11 00:23:38;;;;;;;18.87;17.77;;;20.50;37.10;;;;;;5047226;28;20507;-66
2024/01/11 00:26:05;;;;;;;18.43;17.13;;;20.50;37.10;;;;;;5050999;28;20472;-66
2024/01/11 00:28:32;;;;;;;19.50;18.10;;;20.50;37.20;;;;;;5051173;28;20475;-66
2024/01/11 00:30:59;;;;;;;21.10;19.80;;;20.50;37.20;;;;;;5050927;28;20476;-66
2024/01/11 00:33:26;;;;;;;19.23;17.73;;;20.50;37.20;;;;;;5041008;28;20470;-66
2024/01/11 00:35:54;;;;;;;18.47;17.37;;;20.50;37.20;;;;;;5050843;28;20510;-66
2024/01/11 00:38:21;;;;;;;19.33;18.07;;;20.50;37.20;;;;;;5050960;28;20872;-65
2024/01/11 00:40:48;;;;;;;19.17;17.77;;;20.50;37.20;;;;;;5048441;28;20494;-66
2024/01/11 00:43:15;;;;;;;18.67;17.47;;;20.50;37.20;;;;;;5050792;28;20478;-66
2024/01/11 00:45:42;;;;;;;18.70;17.60;;;20.40;37.20;;;;;;5050895;28;20495;-66
2024/01/11 00:48:09;;;;;;;19.77;18.40;;;20.40;37.20;;;;;;5034804;28;20472;-66
2024/01/11 00:50:36;;;;;;;17.40;16.50;;;20.40;37.20;;;;;;5050357;28;20468;-66
2024/01/11 00:53:04;;;;;;;18.73;17.73;;;20.40;37.20;;;;;;5049338;28;20468;-66
2024/01/11 00:55:31;;;;;;;18.27;17.13;;;20.40;37.20;;;;;;5049944;28;20492;-66
2024/01/11 00:57:58;;;;;;;17.50;16.60;;;20.50;37.30;;;;;;5054310;28;20578;-66
2024/01/11 01:00:25;;;;;;;18.13;17.03;;;20.40;37.20;;;;;;5050324;28;20475;-66
2024/01/11 01:02:52;;;;;;;19.87;18.57;;;20.40;37.20;;;;;;5053997;28;20510;-66
2024/01/11 01:05:19;;;;;;;19.13;17.87;;;20.40;37.30;;;;;;5054132;28;20503;-66
2024/01/11 01:07:46;;;;;;;19.43;17.93;;;20.40;37.20;;;;;;5054027;28;20476;-66
2024/01/11 01:10:14;;;;;;;18.40;17.40;;;20.40;37.20;;;;;;5050576;28;20463;-66
2024/01/11 01:12:41;;;;;;;17.30;16.23;;;20.40;37.30;;;;;;5054281;28;20472;-66
2024/01/11 01:15:09;;;;;;;18.43;17.23;;;20.40;37.30;;;;;;5053847;28;20535;-66
2024/01/11 01:17:35;;;;;;;18.33;17.23;;;20.40;37.30;;;;;;5054045;28;20471;-66
2024/01/11 01:20:03;;;;;;;17.53;16.43;;;20.40;37.30;;;;;;5052396;28;20477;-66
2024/01/11 01:22:29;;;;;;;20.30;19.00;;;20.40;37.30;;;;;;5053857;28;20507;-66
2024/01/11 01:24:56;;;;;;;17.43;16.40;;;20.40;37.30;;;;;;5053565;28;21053;-66
2024/01/11 01:27:24;;;;;;;17.03;16.13;;;20.30;37.30;;;;;;5053742;28;20229;-66
2024/01/11 01:29:51;;;;;;;17.23;16.33;;;20.30;37.20;;;;;;5050851;28;20448;-66
2024/01/11 01:32:18;;;;;;;17.40;16.57;;;20.30;37.30;;;;;;5053684;28;20468;-66
2024/01/11 01:34:46;;;;;;;16.83;15.77;;;20.30;37.20;;;;;;5053523;28;20503;-66
2024/01/11 01:37:12;;;;;;;18.60;17.37;;;20.30;37.30;;;;;;5037772;28;20444;-66
2024/01/11 01:39:39;;;;;;;18.10;17.00;;;20.30;37.30;;;;;;5053096;28;20478;-66
2024/01/11 01:42:06;;;;;;;19.20;17.80;;;20.30;37.30;;;;;;5052309;28;20460;-66
2024/01/11 01:44:35;;;;;;;18.63;17.43;;;20.30;37.30;;;;;;5053366;28;20552;-66
2024/01/11 01:47:03;;;;;;;17.93;16.90;;;20.30;37.30;;;;;;5053293;28;20476;-66
2024/01/11 01:49:30;;;;;;;17.10;16.10;;;20.30;37.30;;;;;;5053314;28;20500;-66
2024/01/11 01:51:57;;;;;;;16.77;15.87;;;20.30;37.30;;;;;;5051520;28;20483;-66
2024/01/11 01:54:25;;;;;;;17.47;16.17;;;20.30;37.30;;;;;;5053190;28;20485;-66
2024/01/11 01:56:53;;;;;;;17.17;15.97;;;20.30;37.30;;;;;;5053134;28;21013;-66
2024/01/11 01:59:21;;;;;;;19.93;18.57;;;20.30;37.30;;;;;;5040971;28;20441;-66
2024/01/11 02:01:50;;;;;;;17.57;16.57;;;20.30;37.30;;;;;;5052533;28;20444;-66
2024/01/11 02:04:17;;;;;;;16.90;16.00;;;20.30;37.30;;;;;;5052945;28;20476;-66
2024/01/11 02:06:47;;;;;;;17.00;15.97;;;20.30;37.30;;;;;;5053096;28;20480;-66
2024/01/11 02:09:14;;;;;;;16.10;15.17;;;20.30;37.30;;;;;;5025726;28;20460;-66
2024/01/11 02:11:42;;;;;;;17.47;16.47;;;20.20;37.20;;;;;;5053030;28;20476;-66
2024/01/11 02:14:11;;;;;;;17.73;16.67;;;20.30;37.30;;;;;;5052728;28;20488;-65
2024/01/11 02:16:38;;;;;;;17.53;16.47;;;20.20;37.30;;;;;;5052812;28;20472;-66
2024/01/11 02:19:12;;;;;;;17.50;16.53;;;20.20;37.30;;;;;;5047267;28;20476;-66
2024/01/11 02:21:40;;;;;;;16.73;15.77;;;20.20;37.30;;;;;;5043828;28;20444;-66
2024/01/11 02:24:08;;;;;;;17.77;16.63;;;20.30;37.30;;;;;;5045861;28;20990;-66
2024/01/11 02:26:35;;;;;;;17.50;16.40;;;20.20;37.30;;;;;;5047701;28;20469;-66
2024/01/11 02:29:03;;;;;;;18.17;16.97;;;20.30;37.40;;;;;;5052812;28;20475;-66
2024/01/11 02:31:30;;;;;;;18.90;17.77;;;20.30;37.40;;;;;;5052576;28;20472;-66
2024/01/11 02:33:57;;;;;;;18.80;17.70;;;20.20;37.30;;;;;;5052193;28;20882;-66
2024/01/11 02:36:26;;;;;;;18.77;17.77;;;20.20;37.30;;;;;;5053703;22;20523;-72
2024/01/11 02:38:54;;;;;;;17.50;16.50;;;20.20;37.30;;;;;;5032630;28;20979;-71
2024/01/11 02:41:23;;;;;;;17.77;16.57;;;20.20;37.30;;;;;;5032520;28;20479;-72
2024/01/11 02:43:50;;;;;;;16.83;15.83;;;20.20;37.30;;;;;;5019853;28;20513;-72
2024/01/11 02:46:17;;;;;;;20.37;19.30;;;20.20;37.30;;;;;;5015428;28;20966;-72
2024/01/11 02:48:44;;;;;;;18.50;17.50;;;20.20;37.30;;;;;;5012715;28;20473;-72
2024/01/11 02:51:11;;;;;;;18.80;17.80;;;20.20;37.30;;;;;;5012309;28;20469;-72
2024/01/11 02:53:38;;;;;;;18.83;17.70;;;20.20;37.40;;;;;;5003411;28;20468;-72
2024/01/11 02:56:05;;;;;;;18.07;16.87;;;20.20;37.40;;;;;;5010008;28;20493;-72
2024/01/11 02:58:33;;;;;;;20.20;18.80;;;20.20;37.30;;;;;;5012407;28;20469;-72
2024/01/11 03:01:00;;;;;;;18.67;17.57;;;20.20;37.40;;;;;;5012138;28;20910;-72
2024/01/11 03:03:27;;;;;;;18.43;17.27;;;20.20;37.40;;;;;;5006163;28;20505;-72
2024/01/11 03:05:54;;;;;;;19.30;18.07;;;20.20;37.30;;;;;;5012122;28;20497;-73
2024/01/11 03:08:21;;;;;;;19.33;18.23;;;20.20;37.40;;;;;;5012456;28;20473;-72
2024/01/11 03:10:48;;;;;;;18.40;17.30;;;20.20;37.30;;;;;;5012208;28;20442;-72
2024/01/11 03:13:15;;;;;;;18.20;17.20;;;20.20;37.40;;;;;;4995481;28;20954;-72
2024/01/11 03:15:43;;;;;;;19.90;18.90;;;20.20;37.30;;;;;;5012008;28;20888;-72
2024/01/11 03:18:10;;;;;;;18.63;17.60;;;20.20;37.40;;;;;;5012044;28;20470;-72
2024/01/11 03:20:37;;;;;;;19.10;18.07;;;20.20;37.40;;;;;;5012169;28;20474;-72
2024/01/11 03:23:05;;;;;;;17.90;16.50;;;20.20;37.40;;;;;;4996005;28;20526;-72
2024/01/11 03:25:32;;;;;;;17.97;16.87;;;20.10;37.30;;;;;;5005844;28;20470;-72
2024/01/11 03:27:59;;;;;;;17.40;16.40;;;20.20;37.40;;;;;;5010497;28;20450;-71
2024/01/11 03:30:26;;;;;;;17.73;16.63;;;20.10;37.30;;;;;;5011867;28;20496;-71
2024/01/11 03:32:55;;;;;;;17.63;16.50;;;20.10;37.40;;;;;;5008695;28;20870;-72
2024/01/11 03:35:22;;;;;;;17.90;16.70;;;20.10;37.30;;;;;;5012096;28;20529;-72
2024/01/11 03:37:48;;;;;;;17.80;16.80;;;20.10;37.30;;;;;;5011942;28;20944;-72
2024/01/11 03:40:15;;;;;;;16.37;15.43;;;20.10;37.30;;;;;;5011874;28;20484;-72
2024/01/11 03:42:43;;;;;;;16.40;15.50;;;20.10;37.30;;;;;;5008054;28;20511;-72
2024/01/11 03:45:10;;;;;;;18.23;17.03;;;20.10;37.30;;;;;;5011702;28;20458;-72
2024/01/11 03:47:36;;;;;;;18.37;16.93;;;20.10;37.30;;;;;;5011770;28;20922;-71
2024/01/11 03:50:06;;;;;;;16.93;16.13;;;20.10;37.30;;;;;;5011663;28;20496;-72
2024/01/11 03:52:32;;;;;;;17.90;16.77;;;20.10;37.30;;;;;;5008247;28;20469;-71
2024/01/11 03:54:59;;;;;;;17.40;16.50;;;20.10;37.30;;;;;;5011732;28;20508;-72
2024/01/11 03:57:26;;;;;;;18.97;17.87;;;20.10;37.30;;;;;;5011724;28;20466;-72
2024/01/11 03:59:53;;;;;;;20.73;19.33;;;20.10;37.30;;;;;;5011498;28;20485;-71
2024/01/11 04:02:20;;;;;;;18.10;17.07;;;20.10;37.30;;;;;;5005637;28;20446;-72
2024/01/11 04:04:47;;;;;;;18.00;17.00;;;20.10;37.30;;;;;;5011611;28;20997;-72
2024/01/11 04:07:16;;;;;;;19.50;18.30;;;20.10;37.30;;;;;;5011537;28;20449;-72
2024/01/11 04:09:43;;;;;;;20.60;19.23;;;20.10;37.30;;;;;;5008409;28;20454;-72
2024/01/11 04:12:10;;;;;;;19.10;18.00;;;20.10;37.30;;;;;;5011493;28;20488;-72
2024/01/11 04:14:39;;;;;;;18.43;17.33;;;20.10;37.30;;;;;;5011346;28;20501;-71
2024/01/11 04:17:06;;;;;;;18.77;17.67;;;20.10;37.40;;;;;;5011472;28;20472;-72
2024/01/11 04:19:33;;;;;;;19.77;18.40;;;20.10;37.30;;;;;;5007107;28;20504;-72
2024/01/11 04:22:00;;;;;;;18.10;17.10;;;20.10;37.40;;;;;;5011303;28;20470;-72
2024/01/11 04:24:28;;;;;;;19.23;18.03;;;20.10;37.30;;;;;;5013693;28;20565;-72
2024/01/11 04:26:55;;;;;;;19.27;18.00;;;20.10;37.40;;;;;;5015264;28;20911;-71
2024/01/11 04:29:22;;;;;;;19.67;18.43;;;20.10;37.40;;;;;;5012393;28;20474;-71
2024/01/11 04:31:49;;;;;;;19.30;18.13;;;20.10;37.40;;;;;;5015017;28;20480;-72
2024/01/11 04:34:16;;;;;;;19.23;17.93;;;20.10;37.40;;;;;;5015041;28;20473;-71
2024/01/11 04:36:43;;;;;;;18.20;17.27;;;20.10;37.40;;;;;;5015090;28;20469;-72
2024/01/11 04:39:09;;;;;;;18.53;17.50;;;20.10;37.40;;;;;;5010148;28;20475;-72
2024/01/11 04:41:40;;;;;;;19.63;18.50;;;20.10;37.40;;;;;;5009270;28;20434;-72
2024/01/11 04:44:07;;;;;;;19.77;18.50;;;20.10;37.40;;;;;;5014835;28;20556;-72
2024/01/11 04:46:34;;;;;;;18.30;17.30;;;20.10;37.40;;;;;;5014684;28;20496;-72
2024/01/11 04:49:01;;;;;;;18.37;17.37;;;20.10;37.30;;;;;;5012405;28;20482;-72
2024/01/11 04:51:28;;;;;;;18.23;17.20;;;20.10;37.40;;;;;;5014737;28;20952;-72
2024/01/11 04:53:55;;;;;;;20.10;18.60;;;20.10;37.40;;;;;;5014660;28;20465;-72
2024/01/11 04:56:21;;;;;;;19.43;18.23;;;20.10;37.40;;;;;;5014539;28;20847;-71
2024/01/11 04:58:50;;;;;;;21.30;20.10;;;20.10;37.40;;;;;;5013339;28;20446;-73
2024/01/11 05:01:18;;;;;;;20.20;18.90;;;20.10;37.40;;;;;;4993662;28;20469;-72
2024/01/11 05:03:46;;;;;;;20.40;19.10;;;20.10;37.40;;;;;;5014533;28;20505;-72
2024/01/11 05:06:16;;;;;;;19.63;18.63;;;20.10;37.30;;;;;;5014368;28;20494;-72
2024/01/11 05:08:44;;;;;;;21.13;19.33;;;20.10;37.30;;;;;;5012631;28;20464;-72
2024/01/11 05:11:17;;;;;;;20.00;18.80;;;20.10;37.30;;;;;;5006881;28;20981;-70
2024/01/11 05:13:45;;;;;;;18.60;17.60;;;20.00;37.30;;;;;;5014354;28;20449;-69
2024/01/11 05:16:19;;;;;;;20.47;19.20;;;20.00;37.20;;;;;;5014269;28;20824;-69
2024/01/11 05:18:46;;;;;;;20.90;19.60;;;20.10;37.30;;;;;;5012012;28;20474;-69
2024/01/11 05:21:13;;;;;;;22.60;21.20;;;20.10;37.30;;;;;;5012899;28;20968;-70
2024/01/11 05:23:41;;;;;;;19.73;18.63;;;20.10;37.30;;;;;;5014129;28;20510;-69
2024/01/11 05:26:08;;;;;;;20.70;19.40;;;20.10;37.40;;;;;;5014225;28;20826;-69
2024/01/11 05:28:35;;;;;;;20.83;19.70;;;20.10;37.30;;;;;;5014173;28;20843;-69
2024/01/11 05:31:02;;;;;;;20.90;19.50;;;20.10;37.40;;;;;;5010151;28;20480;-69
2024/01/11 05:33:31;;;;;;;20.20;19.10;;;20.10;37.30;;;;;;5014014;28;20496;-69
2024/01/11 05:35:58;;;;;;;20.10;18.93;;;20.10;37.30;;;;;;5012741;28;20552;-69
2024/01/11 05:38:25;;;;;;;20.20;18.90;;;20.00;37.20;;;;;;5013998;28;20477;-69
2024/01/11 05:40:52;;;;;;;20.70;19.60;;;20.00;37.20;;;;;;4997866;28;20481;-69
2024/01/11 05:43:19;;;;;;;20.13;18.93;;;20.10;37.30;;;;;;5013695;28;20878;-68
2024/01/11 05:45:46;;;;;;;19.10;18.00;;;20.10;37.30;;;;;;5013638;28;20498;-69
2024/01/11 05:48:12;;;;;;;20.53;19.40;;;20.10;37.30;;;;;;5013705;28;20928;-70
2024/01/11 05:50:41;;;;;;;21.47;20.20;;;20.00;37.20;;;;;;5005154;28;20474;-69
2024/01/11 05:53:08;;;;;;;21.03;19.63;;;20.00;37.30;;;;;;5013525;28;20474;-69
2024/01/11 05:55:35;;;;;;;20.20;18.90;;;20.00;37.20;;;;;;5013455;28;20465;-69
2024/01/11 05:58:02;;;;;;;22.57;21.27;;;20.10;37.30;;;;;;5013580;28;20470;-69
2024/01/11 06:00:29;;;;;;;20.27;19.07;;;20.10;37.30;;;;;;5005262;28;20476;-69
2024/01/11 06:02:56;;;;;;;20.13;18.93;;;20.00;37.30;;;;;;5013461;28;20470;-69
2024/01/11 06:05:23;;;;;;;20.20;18.90;;;20.10;37.40;;;;;;4997627;28;20553;-69
2024/01/11 06:07:51;;;;;;;19.90;18.80;;;20.00;37.30;;;;;;5013508;28;20469;-70
2024/01/11 06:10:18;;;;;;;21.30;20.10;;;20.10;37.40;;;;;;5005897;28;20481;-69
2024/01/11 06:12:45;;;;;;;20.93;19.60;;;20.10;37.40;;;;;;5013376;28;20446;-69
2024/01/11 06:15:12;;;;;;;19.13;17.93;;;20.10;37.40;;;;;;5013044;28;20541;-69
2024/01/11 06:17:39;;;;;;;19.67;18.33;;;20.10;37.40;;;;;;5011092;28;20484;-69
2024/01/11 06:20:07;;;;;;;20.33;19.13;;;20.00;37.30;;;;;;5011206;28;20474;-69
2024/01/11 06:22:33;;;;;;;20.90;19.57;;;20.00;37.30;;;;;;5013182;28;20454;-69
2024/01/11 06:25:02;;;;;;;20.20;18.90;;;20.10;37.40;;;;;;5012879;28;20582;-69
2024/01/11 06:27:29;;;;;;;20.57;19.37;;;20.10;37.70;;;;;;5013292;28;21004;-69
2024/01/11 06:29:56;;;;;;;21.60;20.13;;;20.00;37.80;;;;;;5009295;28;20474;-69
2024/01/11 06:32:23;;;;;;;20.67;19.40;;;20.10;38.10;;;;;;4997111;28;20454;-69
2024/01/11 06:34:50;;;;;;;22.73;21.43;;;20.10;38.70;;;;;;5007030;28;20498;-69
2024/01/11 06:37:16;;;;;;;23.33;21.33;;;20.10;39.50;;;;;;5012297;28;20446;-69
2024/01/11 06:39:43;;;;;;;22.00;20.00;;;20.10;39.60;;;;;;5012980;28;20450;-72
2024/01/11 06:42:12;;;;;;;21.33;19.13;;;20.20;40.80;;;;;;5012333;28;20473;-67
2024/01/11 06:44:39;;;;;;;20.77;18.77;;;20.10;41.90;;;;;;5008640;28;20908;-68
2024/01/11 06:47:06;;;;;;;21.70;19.63;;;20.00;42.50;;;;;;5010295;28;20475;-67
2024/01/11 06:49:33;;;;;;;21.77;19.87;;;20.00;42.90;;;;;;5012886;28;20449;-68
2024/01/11 06:52:00;;;;;;;20.80;18.80;;;20.00;43.10;;;;;;5012504;28;20481;-66
2024/01/11 06:54:27;;;;;;;23.33;20.90;;;20.00;43.40;;;;;;5008945;28;20877;-67
2024/01/11 06:56:54;;;;;;;25.63;23.20;;;20.00;43.40;;;;;;5012819;28;20645;-70
2024/01/11 06:59:22;;;;;;;23.10;20.80;;;20.00;43.70;;;;;;5012383;28;20871;-70
2024/01/11 07:01:49;;;;;;;21.27;19.17;;;20.10;43.90;;;;;;5012221;28;20446;-70
2024/01/11 07:04:16;;;;;;;21.80;20.30;;;20.10;43.60;;;;;;5012121;28;21078;-70
2024/01/11 07:06:43;;;;;;;22.83;20.47;;;20.10;43.40;;;;;;5012151;28;20956;-70
2024/01/11 07:09:10;;;;;;;20.57;18.50;;;20.10;43.20;;;;;;5012174;28;20866;-71
2024/01/11 07:11:37;;;;;;;22.30;20.60;;;20.10;42.90;;;;;;5012040;28;20477;-70
2024/01/11 07:14:05;;;;;;;20.83;19.13;;;20.20;42.70;;;;;;5011956;28;21082;-70
2024/01/11 07:16:33;;;;;;;22.20;19.93;;;20.20;42.40;;;;;;5012149;28;20514;-70
2024/01/11 07:19:00;;;;;;;20.20;18.90;;;20.20;42.20;;;;;;5011883;28;20913;-70
2024/01/11 07:21:31;;;;;;;21.70;20.00;;;20.20;42.00;;;;;;5011871;28;20477;-70
2024/01/11 07:23:58;;;;;;;20.90;19.40;;;20.20;41.90;;;;;;5011923;28;20477;-70
2024/01/11 07:26:25;;;;;;;20.87;19.57;;;20.20;41.60;;;;;;4995882;28;20498;-70
2024/01/11 07:28:54;;;;;;;22.13;20.77;;;20.20;41.50;;;;;;5011870;28;20945;-70
2024/01/11 07:31:21;;;;;;;20.30;19.00;;;20.20;41.30;;;;;;5011589;28;20933;-70
2024/01/11 07:33:50;;;;;;;19.87;18.53;;;20.20;41.20;;;;;;5011823;28;20446;-70
2024/01/11 07:36:17;;;;;;;21.40;19.43;;;20.20;41.10;;;;;;5011493;28;20474;-70
2024/01/11 07:38:44;;;;;;;20.67;18.90;;;20.30;41.00;;;;;;5011652;28;20473;-70
2024/01/11 07:41:11;;;;;;;23.30;21.50;;;20.30;40.90;;;;;;5011536;28;20442;-69
2024/01/11 07:43:38;;;;;;;21.73;20.37;;;20.30;40.80;;;;;;5011614;28;20449;-70
2024/01/11 07:46:07;;;;;;;21.30;19.70;;;20.30;41.20;;;;;;5011274;28;20513;-69
2024/01/11 07:48:34;;;;;;;20.87;19.37;;;20.30;40.60;;;;;;5011586;28;20472;-70
2024/01/11 07:51:03;;;;;;;20.53;19.20;;;20.30;40.50;;;;;;5011488;28;20446;-70
2024/01/11 07:53:31;;;;;;;20.10;18.90;;;20.30;40.40;;;;;;5011531;28;20470;-70
2024/01/11 07:55:58;;;;;;;23.07;21.37;;;20.30;40.30;;;;;;5011437;28;20461;-70
2024/01/11 07:58:25;;;;;;;21.30;19.80;;;20.30;40.20;;;;;;5012144;28;20473;-69
2024/01/11 08:00:52;;;;;;;20.40;19.10;;;20.30;40.10;;;;;;5015558;28;20484;-70
2024/01/11 08:03:19;;;;;;;20.87;19.43;;;20.30;40.00;;;;;;5015429;28;20484;-70
2024/01/11 08:05:46;;;;;;;23.00;21.27;;;20.40;40.00;;;;;;5015402;28;20520;-70
2024/01/11 08:08:14;;;;;;;21.37;20.07;;;20.40;39.90;;;;;;5015405;28;20823;-71
2024/01/11 08:10:41;;;;;;;21.17;20.03;;;20.40;39.90;;;;;;5015504;28;20482;-70
2024/01/11 08:13:09;;;;;;;21.07;19.87;;;20.40;39.80;;;;;;5015273;28;20473;-70
2024/01/11 08:15:37;;;;;;;20.70;19.37;;;20.40;39.70;;;;;;5015349;28;20457;-70
2024/01/11 08:18:05;;;;;;;22.47;21.27;;;20.40;39.70;;;;;;5015169;28;20453;-70
2024/01/11 08:20:32;;;;;;;20.30;19.10;;;20.40;39.60;;;;;;5015258;28;20438;-70
2024/01/11 08:22:59;;;;;;;22.13;20.73;;;20.40;39.50;;;;;;5015122;28;20485;-69
2024/01/11 08:25:27;;;;;;;22.00;20.33;;;20.40;39.50;;;;;;5014979;28;20509;-70
2024/01/11 08:27:54;;;;;;;21.13;19.77;;;20.40;39.40;;;;;;5015084;28;20956;-70
2024/01/11 08:30:22;;;;;;;22.03;20.10;;;20.40;39.40;;;;;;5015018;28;20842;-71
2024/01/11 08:32:49;;;;;;;21.43;20.23;;;20.40;39.40;;;;;;5015065;28;20879;-70
2024/01/11 08:35:16;;;;;;;22.10;20.53;;;20.40;39.40;;;;;;5050217;22;20484;-64
2024/01/11 08:37:43;;;;;;;21.13;19.90;;;20.40;39.40;;;;;;5066363;28;20505;-64
2024/01/11 08:40:10;;;;;;;20.97;19.83;;;20.40;39.30;;;;;;5065120;28;20466;-64
2024/01/11 08:42:39;;;;;;;21.50;20.30;;;20.40;39.30;;;;;;5062848;28;20467;-64
2024/01/11 08:45:07;;;;;;;21.37;19.93;;;20.40;39.30;;;;;;5062750;28;20986;-65
2024/01/11 08:47:34;;;;;;;19.80;18.80;;;20.40;39.30;;;;;;5054582;28;20783;-64
2024/01/11 08:50:05;;;;;;;21.30;20.10;;;20.40;39.30;;;;;;5054487;28;20443;-64
2024/01/11 08:52:32;;;;;;;19.80;18.80;;;20.40;39.20;;;;;;5039380;28;20523;-64
2024/01/11 08:54:59;;;;;;;21.00;19.90;;;20.50;39.20;;;;;;5054290;28;20495;-64
2024/01/11 08:57:27;;;;;;;21.17;20.00;;;20.40;39.20;;;;;;5054244;28;20478;-65
2024/01/11 08:59:55;;;;;;;20.43;19.20;;;20.50;39.20;;;;;;5054265;28;20444;-64
2024/01/11 09:02:22;;;;;;;21.30;20.10;;;20.40;39.10;;;;;;5053973;28;20456;-64
2024/01/11 09:04:49;;;;;;;20.90;19.30;;;20.40;39.10;;;;;;5054006;28;20482;-65
2024/01/11 09:07:16;;;;;;;21.33;20.03;;;20.40;39.10;;;;;;5054025;28;20472;-65
2024/01/11 09:09:43;;;;;;;20.90;19.80;;;20.40;39.10;;;;;;5053085;28;20446;-64
2024/01/11 09:12:10;;;;;;;20.70;19.60;;;20.50;39.10;;;;;;5053515;28;20475;-64
2024/01/11 09:14:39;;;;;;;20.30;19.30;;;20.40;39.00;;;;;;5053982;28;20441;-64
2024/01/11 09:17:08;;;;;;;21.40;20.20;;;20.50;39.00;;;;;;5053797;28;20532;-64
2024/01/11 09:19:35;;;;;;;19.50;18.57;;;20.50;39.00;;;;;;5053861;28;20448;-64
2024/01/11 09:22:02;;;;;;;21.50;20.30;;;20.50;38.90;;;;;;5053696;28;20468;-64
2024/01/11 09:24:29;;;;;;;21.50;20.50;;;20.50;38.90;;;;;;5037402;28;20436;-64
2024/01/11 09:26:56;;;;;;;20.20;19.20;;;20.50;38.90;;;;;;5053791;28;20487;-64
2024/01/11 09:29:23;;;;;;;21.20;20.00;;;20.50;38.90;;;;;;5053592;28;20472;-64
2024/01/11 09:31:50;;;;;;;21.17;19.97;;;20.50;38.80;;;;;;5053586;28;20513;-64
2024/01/11 09:34:18;;;;;;;20.13;18.90;;;20.50;38.80;;;;;;5053541;28;20471;-64
2024/01/11 09:36:45;;;;;;;21.03;20.03;;;20.50;38.80;;;;;;5053306;28;20507;-64
2024/01/11 09:39:13;;;;;;;20.40;19.37;;;20.50;38.80;;;;;;5053454;28;20444;-64
2024/01/11 09:41:44;;;;;;;20.50;19.50;;;20.50;38.70;;;;;;5053478;28;20440;-64
2024/01/11 09:44:11;;;;;;;21.60;20.53;;;20.50;38.70;;;;;;5053449;28;20447;-64
2024/01/11 09:46:38;;;;;;;21.17;20.07;;;20.50;38.60;;;;;;5053198;28;20522;-64
2024/01/11 09:49:05;;;;;;;21.60;20.30;;;20.50;38.60;;;;;;5053316;28;20523;-64
2024/01/11 09:51:38;;;;;;;21.20;19.93;;;20.50;38.60;;;;;;5037428;28;20502;-64
2024/01/11 09:54:07;;;;;;;22.30;20.90;;;20.50;38.60;;;;;;5053305;28;20480;-64
2024/01/11 09:56:35;;;;;;;21.93;20.83;;;20.50;38.60;;;;;;5053129;28;20462;-64
2024/01/11 09:59:05;;;;;;;23.40;22.10;;;20.50;38.60;;;;;;5053143;28;20436;-64
2024/01/11 10:01:32;;;;;;;22.20;21.10;;;20.50;38.60;;;;;;5037195;28;20928;-64
2024/01/11 10:04:00;;;;;;;21.83;20.83;;;20.50;38.60;;;;;;5052977;28;20467;-64
2024/01/11 10:06:28;;;;;;;21.57;20.37;;;20.50;38.60;;;;;;5052723;28;20539;-64
2024/01/11 10:08:56;;;;;;;21.10;20.10;;;20.50;38.60;;;;;;5052959;28;20547;-64
2024/01/11 10:11:23;;;;;;;20.97;20.00;;;20.50;38.60;;;;;;5052759;28;20486;-64
2024/01/11 10:13:56;;;;;;;21.23;20.13;;;20.50;38.60;;;;;;5052983;28;20479;-64
2024/01/11 10:16:24;;;;;;;21.73;20.63;;;20.50;38.60;;;;;;5052688;28;20507;-65
2024/01/11 10:18:54;;;;;;;20.80;19.80;;;20.50;38.60;;;;;;5052663;28;20507;-64
2024/01/11 10:21:21;;;;;;;20.53;19.63;;;20.50;38.60;;;;;;5052104;28;20475;-64
2024/01/11 10:23:48;;;;;;;20.90;19.93;;;20.50;38.60;;;;;;5052611;28;20955;-64
2024/01/11 10:26:18;;;;;;;21.50;20.30;;;20.50;38.60;;;;;;5052347;28;20911;-64
2024/01/11 10:28:46;;;;;;;21.87;20.63;;;20.50;38.60;;;;;;5052598;28;20440;-64
2024/01/11 10:31:14;;;;;;;22.33;21.27;;;20.50;38.60;;;;;;5052410;28;20472;-64
2024/01/11 10:33:42;;;;;;;21.17;20.20;;;20.50;38.60;;;;;;5052549;28;20444;-64
2024/01/11 10:36:09;;;;;;;20.83;19.83;;;20.50;38.50;;;;;;5052173;28;20480;-64
2024/01/11 10:38:39;;;;;;;21.00;20.00;;;20.50;38.50;;;;;;5052217;28;20447;-64
2024/01/11 10:41:07;;;;;;;22.53;20.90;;;20.50;38.50;;;;;;5052082;28;20472;-64
2024/01/11 10:43:38;;;;;;;22.33;21.23;;;20.60;38.60;;;;;;5036489;28;20499;-64
2024/01/11 10:46:06;;;;;;;21.23;20.23;;;20.60;38.50;;;;;;5052051;28;20507;-64
2024/01/11 10:48:37;;;;;;;21.57;20.30;;;20.60;38.50;;;;;;5052221;28;20440;-64
2024/01/11 10:51:08;;;;;;;21.17;19.93;;;20.60;38.50;;;;;;5052018;28;20468;-64
2024/01/11 10:53:42;;;;;;;20.87;19.87;;;20.60;38.50;;;;;;5036571;28;20464;-64
2024/01/11 10:56:11;;;;;;;22.90;21.70;;;20.60;38.50;;;;;;5051876;28;20467;-64
2024/01/11 10:58:41;;;;;;;20.47;19.50;;;20.60;38.40;;;;;;5052101;28;20527;-64
2024/01/11 11:01:10;;;;;;;21.40;20.30;;;20.60;38.40;;;;;;5051906;28;20879;-64
2024/01/11 11:03:38;;;;;;;22.20;21.00;;;20.60;38.40;;;;;;5051931;28;20931;-64
2024/01/11 11:06:08;;;;;;;21.00;19.97;;;20.60;38.30;;;;;;5051623;28;20511;-64
2024/01/11 11:08:36;;;;;;;20.13;19.13;;;20.60;38.30;;;;;;5036013;28;20468;-64
2024/01/11 11:11:06;;;;;;;20.83;19.83;;;20.60;38.30;;;;;;5051736;28;20449;-64
2024/01/11 11:13:34;;;;;;;22.10;21.00;;;20.60;38.30;;;;;;5051652;28;20451;-64
2024/01/11 11:16:03;;;;;;;21.40;20.30;;;20.60;38.20;;;;;;5051724;28;20463;-64
2024/01/11 11:18:31;;;;;;;21.67;20.37;;;20.60;38.20;;;;;;5051620;28;20527;-64
2024/01/11 11:20:59;;;;;;;20.80;19.80;;;20.60;38.20;;;;;;5051630;28;20666;-64
2024/01/11 11:23:26;;;;;;;21.67;20.57;;;20.60;38.20;;;;;;5051607;28;20567;-64
2024/01/11 11:25:55;;;;;;;21.27;20.17;;;20.60;38.20;;;;;;5051352;28;20508;-64
2024/01/11 11:28:23;;;;;;;20.53;19.50;;;20.60;38.20;;;;;;5051429;28;20448;-64
2024/01/11 11:30:51;;;;;;;19.70;18.80;;;20.60;38.20;;;;;;5051576;28;20915;-64
2024/01/11 11:33:22;;;;;;;23.23;21.93;;;20.60;38.10;;;;;;5050598;28;20455;-64
2024/01/11 11:35:49;;;;;;;21.60;20.47;;;20.60;38.20;;;;;;5051410;28;20506;-64
2024/01/11 11:38:19;;;;;;;21.87;20.37;;;20.60;38.20;;;;;;5051209;28;20448;-64
2024/01/11 11:40:48;;;;;;;20.50;18.97;;;20.60;38.20;;;;;;5051377;28;20436;-64
2024/01/11 11:43:17;;;;;;;20.23;19.23;;;20.60;38.20;;;;;;5051190;28;20448;-64
2024/01/11 11:45:46;;;;;;;20.60;19.57;;;20.60;38.20;;;;;;5051140;28;20484;-64
2024/01/11 11:48:51;;;;;;;20.73;19.63;;;20.60;38.20;;;;;;5051110;28;20483;-65
2024/01/11 11:51:20;;;;;;;21.47;20.20;;;20.60;38.20;;;;;;5051111;28;20444;-64
2024/01/11 11:53:48;;;;;;;20.37;19.27;;;20.60;38.20;;;;;;5051233;28;20451;-64
2024/01/11 11:56:16;;;;;;;22.10;20.70;;;20.60;38.20;;;;;;5051066;28;20827;-64
2024/01/11 11:58:44;;;;;;;20.50;19.60;;;20.60;38.20;;;;;;5051370;28;20862;-64
2024/01/11 12:01:12;;;;;;;20.33;19.23;;;20.60;38.30;;;;;;5051020;28;20472;-64
2024/01/11 12:03:41;;;;;;;20.43;19.33;;;20.70;38.30;;;;;;5051260;28;20490;-64
2024/01/11 12:06:10;;;;;;;21.37;20.37;;;20.60;38.20;;;;;;5051083;28;20563;-65
2024/01/11 12:08:40;;;;;;;20.70;19.80;;;20.60;38.20;;;;;;5035125;28;20454;-65
2024/01/11 12:11:07;;;;;;;21.20;20.10;;;20.60;38.20;;;;;;5051004;28;20788;-64
2024/01/11 12:13:35;;;;;;;19.63;18.50;;;20.70;38.30;;;;;;5050922;28;20447;-64
2024/01/11 12:16:02;;;;;;;22.07;20.97;;;20.60;38.20;;;;;;5051035;28;20484;-64
2024/01/11 12:18:29;;;;;;;22.60;21.50;;;20.60;38.20;;;;;;5050913;28;20874;-64
2024/01/11 12:20:56;;;;;;;21.30;20.20;;;20.60;38.20;;;;;;5051049;28;20583;-64
2024/01/11 12:23:23;;;;;;;22.17;20.97;;;20.70;38.20;;;;;;5050962;28;20840;-65
2024/01/11 12:25:51;;;;;;;22.10;20.90;;;20.70;38.20;;;;;;5050831;28;20507;-64
2024/01/11 12:28:18;;;;;;;21.20;20.10;;;20.70;38.20;;;;;;5050929;28;20849;-64
2024/01/11 12:30:46;;;;;;;21.20;20.20;;;20.70;38.20;;;;;;5050895;28;20947;-64